Time,TemperatureF,DewpointF,PressureIn,WindDirection,WindDirectionDegrees,WindSpeedMPH,WindSpeedGustMPH,Humidity,HourlyPrecipIn,Conditions,Clouds,dailyrainin,SoftwareType,DateUTC
2013-07-20 00:03:00,79.7,73.7,29.71,West,265,0.0,20.0,82,0.00,CLR,,0.00,WeatherDisplay:10.37,2013-07-20 04:03:00,
2013-07-20 00:13:00,79.7,73.7,29.71,West,265,0.0,0.0,82,0.00,CLR,,0.00,WeatherDisplay:10.37,2013-07-20 04:13:00,
2013-07-20 00:23:00,79.5,73.5,29.71,WNW,300,0.0,2.0,82,0.00,CLR,,0.00,WeatherDisplay:10.37,2013-07-20 04:23:00,
2013-07-20 00:33:00,79.7,73.7,29.71,West,269,0.0,3.0,82,0.00,CLR,,0.00,WeatherDisplay:10.37,2013-07-20 04:33:00,
2013-07-20 00:43:00,79.5,73.5,29.71,WSW,257,0.0,3.0,82,0.00,CLR,,0.00,WeatherDisplay:10.37,2013-07-20 04:43:00,
2013-07-20 00:53:00,79.5,73.5,29.71,WSW,248,0.0,2.0,82,0.00,CLR,,0.00,WeatherDisplay:10.37,2013-07-20 04:53:00,
2013-07-20 01:03:00,79.3,73.7,29.71,WSW,253,0.0,1.0,83,0.00,CLR,,0.00,WeatherDisplay:10.37,2013-07-20 05:03:00,
2013-07-20 01:13:00,78.9,73.3,29.71,SW,232,0.0,0.0,83,0.00,CLR,,0.00,WeatherDisplay:10.37,2013-07-20 05:13:00,
2013-07-20 01:23:00,78.6,73.4,29.71,NNW,327,0.0,1.0,84,0.00,CLR,,0.00,WeatherDisplay:10.37,2013-07-20 05:23:00,
2013-07-20 01:33:00,78.6,73.4,29.71,WSW,252,0.0,10.0,84,0.00,CLR,,0.00,WeatherDisplay:10.37,2013-07-20 05:33:00,
2013-07-20 01:43:00,78.4,73.5,29.71,West,264,0.0,2.0,85,0.00,CLR,,0.00,WeatherDisplay:10.37,2013-07-20 05:43:00,
2013-07-20 01:53:00,78.2,73.3,29.72,West,280,0.0,2.0,85,0.00,CLR,,0.00,WeatherDisplay:10.37,2013-07-20 05:53:00,
2013-07-20 02:03:00,77.8,72.6,29.71,SW,235,0.0,0.0,84,0.00,CLR,,0.00,WeatherDisplay:10.37,2013-07-20 06:03:00,
2013-07-20 02:13:00,77.6,73.1,29.71,SW,221,0.0,10.0,86,0.00,CLR,,0.00,WeatherDisplay:10.37,2013-07-20 06:13:00,
2013-07-20 02:23:00,77.4,72.9,29.71,SW,228,0.0,10.0,86,0.00,CLR,,0.00,WeatherDisplay:10.37,2013-07-20 06:23:00,
2013-07-20 02:33:00,77.3,73.1,29.71,WSW,246,0.0,10.0,87,0.00,CLR,,0.00,WeatherDisplay:10.37,2013-07-20 06:33:00,
2013-07-20 02:43:00,77.0,72.5,29.71,WSW,242,0.0,10.0,86,0.00,CLR,,0.00,WeatherDisplay:10.37,2013-07-20 06:43:00,
2013-07-20 02:53:00,77.1,72.9,29.69,WSW,256,0.0,10.0,87,0.00,CLR,,0.00,WeatherDisplay:10.37,2013-07-20 06:53:00,
2013-07-20 03:03:00,77.1,72.9,29.69,WSW,249,0.0,10.0,87,0.00,CLR,,0.00,WeatherDisplay:10.37,2013-07-20 07:03:00,
2013-07-20 03:13:00,77.3,73.1,29.69,WSW,241,0.0,10.0,87,0.00,CLR,,0.00,WeatherDisplay:10.37,2013-07-20 07:13:00,
2013-07-20 03:23:00,77.3,72.8,29.69,WSW,249,0.0,10.0,86,0.00,CLR,,0.00,WeatherDisplay:10.37,2013-07-20 07:23:00,
2013-07-20 03:33:00,77.4,72.9,29.69,West,273,0.0,10.0,86,0.00,CLR,,0.00,WeatherDisplay:10.37,2013-07-20 07:33:00,
2013-07-20 03:43:00,77.3,73.1,29.69,WSW,239,0.0,10.0,87,0.00,CLR,,0.00,WeatherDisplay:10.37,2013-07-20 07:43:00,
2013-07-20 03:53:00,76.9,73.1,29.69,WSW,255,0.0,10.0,88,0.00,CLR,,0.00,WeatherDisplay:10.37,2013-07-20 07:53:00,
2013-07-20 04:03:00,76.5,73.0,29.68,West,261,0.0,10.0,89,0.00,CLR,,0.00,WeatherDisplay:10.37,2013-07-20 08:03:00,
2013-07-20 04:13:00,76.4,72.9,29.68,West,273,0.0,10.0,89,0.00,CLR,,0.00,WeatherDisplay:10.37,2013-07-20 08:13:00,
2013-07-20 04:23:00,76.2,72.7,29.69,West,277,0.0,10.0,89,0.00,CLR,,0.00,WeatherDisplay:10.37,2013-07-20 08:23:00,
2013-07-20 04:33:00,76.2,72.7,29.68,SW,229,0.0,10.0,89,0.00,CLR,,0.00,WeatherDisplay:10.37,2013-07-20 08:33:00,
2013-07-20 04:43:00,76.0,72.9,29.68,West,268,0.0,10.0,90,0.00,CLR,,0.00,WeatherDisplay:10.37,2013-07-20 08:43:00,
2013-07-20 04:53:00,75.8,72.7,29.67,West,279,0.0,10.0,90,0.00,CLR,,0.00,WeatherDisplay:10.37,2013-07-20 08:53:00,
2013-07-20 05:03:00,75.7,72.9,29.67,WSW,244,0.0,10.0,91,0.00,CLR,,0.00,WeatherDisplay:10.37,2013-07-20 09:03:00,
2013-07-20 05:13:00,75.5,73.0,29.67,WNW,284,0.0,10.0,92,0.00,CLR,,0.00,WeatherDisplay:10.37,2013-07-20 09:13:00,
2013-07-20 05:23:00,75.5,73.0,29.67,WSW,249,0.0,10.0,92,0.00,CLR,,0.00,WeatherDisplay:10.37,2013-07-20 09:23:00,
2013-07-20 05:33:00,75.3,72.8,29.67,WSW,256,0.0,10.0,92,0.00,CLR,,0.00,WeatherDisplay:10.37,2013-07-20 09:33:00,
2013-07-20 05:43:00,75.3,73.1,29.67,SW,226,0.0,10.0,93,0.00,CLR,,0.00,WeatherDisplay:10.37,2013-07-20 09:43:00,
2013-07-20 05:53:00,75.1,72.9,29.67,West,277,0.0,10.0,93,0.00,CLR,,0.00,WeatherDisplay:10.37,2013-07-20 09:53:00,
2013-07-20 06:03:00,75.3,73.1,29.68,WSW,246,0.0,10.0,93,0.00,CLR,,0.00,WeatherDisplay:10.37,2013-07-20 10:03:00,
2013-07-20 06:13:00,75.5,73.3,29.68,WSW,238,0.0,10.0,93,0.00,CLR,,0.00,WeatherDisplay:10.37,2013-07-20 10:13:00,
2013-07-20 06:23:00,75.6,73.4,29.68,WSW,237,0.0,10.0,93,0.00,CLR,,0.00,WeatherDisplay:10.37,2013-07-20 10:23:00,
2013-07-20 06:33:00,76.0,73.5,29.69,SW,228,0.0,10.0,92,0.00,CLR,,0.00,WeatherDisplay:10.37,2013-07-20 10:33:00,
2013-07-20 06:43:00,76.4,73.9,29.69,SW,234,0.0,10.0,92,0.00,CLR,,0.00,WeatherDisplay:10.37,2013-07-20 10:43:00,
2013-07-20 06:53:00,76.9,73.4,29.68,WSW,256,0.0,10.0,89,0.00,CLR,,0.00,WeatherDisplay:10.37,2013-07-20 10:53:00,
2013-07-20 07:03:00,77.3,73.8,29.68,WSW,253,0.0,1.0,89,0.00,CLR,,0.00,WeatherDisplay:10.37,2013-07-20 11:03:00,
2013-07-20 07:13:00,77.8,73.6,29.68,WSW,254,0.0,10.0,87,0.00,CLR,,0.00,WeatherDisplay:10.37,2013-07-20 11:13:00,
2013-07-20 07:23:00,78.4,73.9,29.69,WSW,244,0.0,10.0,86,0.00,CLR,,0.00,WeatherDisplay:10.37,2013-07-20 11:23:00,
2013-07-20 07:33:00,78.7,73.8,29.69,WSW,257,0.0,10.0,85,0.00,CLR,,0.00,WeatherDisplay:10.37,2013-07-20 11:33:00,
2013-07-20 07:43:00,78.9,74.0,29.69,WSW,246,0.0,10.0,85,0.00,CLR,,0.00,WeatherDisplay:10.37,2013-07-20 11:43:00,
2013-07-20 07:53:00,79.3,74.0,29.68,WSW,251,1.0,10.0,84,0.00,CLR,,0.00,WeatherDisplay:10.37,2013-07-20 11:53:00,
2013-07-20 08:03:00,79.5,73.9,29.69,WSW,242,0.0,7.0,83,0.00,CLR,,0.00,WeatherDisplay:10.37,2013-07-20 12:03:00,
2013-07-20 08:13:00,79.9,74.3,29.69,WNW,286,0.0,10.0,83,0.00,CLR,,0.00,WeatherDisplay:10.37,2013-07-20 12:13:00,
2013-07-20 08:23:00,80.4,74.4,29.69,West,272,0.0,10.0,82,0.00,CLR,,0.00,WeatherDisplay:10.37,2013-07-20 12:23:00,
2013-07-20 08:33:00,81.0,74.6,29.69,WSW,255,0.0,10.0,81,0.00,CLR,,0.00,WeatherDisplay:10.37,2013-07-20 12:33:00,
2013-07-20 08:43:00,82.0,75.2,29.69,SW,230,0.0,10.0,80,0.00,CLR,,0.00,WeatherDisplay:10.37,2013-07-20 12:43:00,
2013-07-20 08:53:00,82.8,74.8,29.68,SW,236,0.0,10.0,77,0.00,CLR,,0.00,WeatherDisplay:10.37,2013-07-20 12:53:00,
2013-07-20 09:03:00,83.1,74.7,29.68,SW,234,1.0,10.0,76,0.00,CLR,,0.00,WeatherDisplay:10.37,2013-07-20 13:03:00,
2013-07-20 09:13:00,83.5,74.7,29.68,WSW,244,0.0,10.0,75,0.00,CLR,,0.00,WeatherDisplay:10.37,2013-07-20 13:13:00,
2013-07-20 09:23:00,83.7,74.1,29.67,WSW,240,0.0,10.0,73,0.00,CLR,,0.00,WeatherDisplay:10.37,2013-07-20 13:23:00,
2013-07-20 09:33:00,83.6,74.0,29.67,West,266,0.0,10.0,73,0.00,CLR,,0.00,WeatherDisplay:10.37,2013-07-20 13:33:00,
2013-07-20 09:43:00,83.5,74.3,29.67,West,281,0.0,10.0,74,0.00,CLR,,0.00,WeatherDisplay:10.37,2013-07-20 13:43:00,
2013-07-20 09:53:00,83.5,74.3,29.67,West,268,0.0,10.0,74,0.00,CLR,,0.00,WeatherDisplay:10.37,2013-07-20 13:53:00,
2013-07-20 10:03:00,83.5,74.8,29.67,WSW,249,0.0,10.0,75,0.00,CLR,,0.00,WeatherDisplay:10.37,2013-07-20 14:03:00,
2013-07-20 10:13:00,84.1,74.1,29.67,WSW,252,0.0,10.0,72,0.00,FEW,,0.00,WeatherDisplay:10.37,2013-07-20 14:13:00,
2013-07-20 10:23:00,84.1,74.1,29.67,West,262,0.0,10.0,72,0.00,FEW,,0.00,WeatherDisplay:10.37,2013-07-20 14:23:00,
2013-07-20 10:33:00,85.3,74.4,29.66,SW,233,0.0,10.0,70,0.00,FEW,,0.00,WeatherDisplay:10.37,2013-07-20 14:33:00,
2013-07-20 10:43:00,86.6,75.3,29.66,SW,228,1.0,10.0,69,0.00,FEW,,0.00,WeatherDisplay:10.37,2013-07-20 14:43:00,
2013-07-20 10:53:00,87.0,74.3,29.66,WSW,245,1.0,10.0,66,0.00,FEW,,0.00,WeatherDisplay:10.37,2013-07-20 14:53:00,
2013-07-20 11:03:00,85.6,73.0,29.66,WSW,245,1.0,10.0,66,0.00,FEW,,0.00,WeatherDisplay:10.37,2013-07-20 15:03:00,
2013-07-20 11:13:00,85.2,73.4,29.66,WSW,251,1.0,10.0,68,0.00,FEW,,0.00,WeatherDisplay:10.37,2013-07-20 15:13:00,
2013-07-20 11:23:00,86.1,74.3,29.66,WNW,290,0.0,10.0,68,0.00,FEW,,0.00,WeatherDisplay:10.37,2013-07-20 15:23:00,
2013-07-20 11:33:00,85.6,73.8,29.66,West,267,2.0,10.0,68,0.00,FEW,,0.00,WeatherDisplay:10.37,2013-07-20 15:33:00,
2013-07-20 11:43:00,85.3,73.1,29.66,West,271,1.0,10.0,67,0.00,FEW,,0.00,WeatherDisplay:10.37,2013-07-20 15:43:00,
2013-07-20 11:53:00,86.0,74.2,29.65,SW,236,0.0,10.0,68,0.00,FEW,,0.00,WeatherDisplay:10.37,2013-07-20 15:53:00,
2013-07-20 12:03:00,85.8,74.0,29.65,West,272,0.0,10.0,68,0.00,FEW,,0.00,WeatherDisplay:10.37,2013-07-20 16:03:00,
2013-07-20 12:13:00,86.2,73.0,29.65,WNW,288,0.0,10.0,65,0.00,CLR,,0.00,WeatherDisplay:10.37,2013-07-20 16:13:00,
2013-07-20 12:23:00,86.8,73.2,29.65,WSW,258,1.0,12.0,64,0.00,CLR,,0.00,WeatherDisplay:10.37,2013-07-20 16:23:00,
2013-07-20 12:33:00,86.2,73.0,29.64,West,268,0.0,11.0,65,0.00,CLR,,0.00,WeatherDisplay:10.37,2013-07-20 16:33:00,
2013-07-20 12:43:00,84.8,71.3,29.64,West,268,1.0,11.0,64,0.00,CLR,,0.00,WeatherDisplay:10.37,2013-07-20 16:43:00,
2013-07-20 12:53:00,84.3,71.7,29.64,West,268,1.0,11.0,66,0.00,CLR,,0.00,WeatherDisplay:10.37,2013-07-20 16:53:00,
2013-07-20 13:03:00,85.9,73.3,29.64,WSW,247,0.0,11.0,66,0.00,CLR,,0.00,WeatherDisplay:10.37,2013-07-20 17:03:00,
2013-07-20 13:13:00,87.4,73.3,29.64,WSW,254,0.0,11.0,63,0.00,CLR,,0.00,WeatherDisplay:10.37,2013-07-20 17:13:00,
2013-07-20 13:23:00,87.4,71.3,29.64,West,264,1.0,16.0,59,0.00,CLR,,0.00,WeatherDisplay:10.37,2013-07-20 17:23:00,
2013-07-20 13:33:00,87.6,71.0,29.63,WSW,253,2.0,16.0,58,0.00,CLR,,0.00,WeatherDisplay:10.37,2013-07-20 17:33:00,
2013-07-20 13:43:00,88.1,72.0,29.63,WSW,250,1.0,16.0,59,0.00,CLR,,0.00,WeatherDisplay:10.37,2013-07-20 17:43:00,
2013-07-20 13:53:00,87.8,71.2,29.63,West,272,0.0,16.0,58,0.00,CLR,,0.00,WeatherDisplay:10.37,2013-07-20 17:53:00,
2013-07-20 14:03:00,87.6,71.0,29.63,WSW,245,2.0,16.0,58,0.00,CLR,,0.00,WeatherDisplay:10.37,2013-07-20 18:03:00,
2013-07-20 14:13:00,88.8,71.6,29.63,WSW,248,1.0,16.0,57,0.00,CLR,,0.00,WeatherDisplay:10.37,2013-07-20 18:13:00,
2013-07-20 14:23:00,89.1,70.8,29.62,West,259,1.0,16.0,55,0.00,CLR,,0.00,WeatherDisplay:10.37,2013-07-20 18:23:00,
2013-07-20 14:33:00,88.9,71.2,29.62,West,263,2.0,16.0,56,0.00,CLR,,0.00,WeatherDisplay:10.37,2013-07-20 18:33:00,
2013-07-20 14:43:00,88.7,71.5,29.62,West,267,0.0,16.0,57,0.00,CLR,,0.00,WeatherDisplay:10.37,2013-07-20 18:43:00,
2013-07-20 14:53:00,87.6,71.0,29.62,WNW,302,5.0,16.0,58,0.00,CLR,,0.00,WeatherDisplay:10.37,2013-07-20 18:53:00,
2013-07-20 15:13:00,73.9,70.5,29.65,NW,319,0.0,13.0,89,0.09, +RA,,0.27,WeatherDisplay:10.37,2013-07-20 19:13:00,
2013-07-20 15:23:00,75.6,73.7,29.64,WSW,237,0.0,2.0,94,0.00,-RA,,0.27,WeatherDisplay:10.37,2013-07-20 19:23:00,
2013-07-20 15:33:00,78.2,75.7,29.63,SW,219,0.0,5.0,92,0.00,-RA,,0.27,WeatherDisplay:10.37,2013-07-20 19:33:00,
2013-07-20 15:43:00,80.0,75.4,29.63,SW,225,0.0,0.0,86,0.00,FEW,,0.27,WeatherDisplay:10.37,2013-07-20 19:43:00,
2013-07-20 15:53:00,80.0,75.1,29.62,West,265,0.0,5.0,85,0.00,FEW,,0.27,WeatherDisplay:10.37,2013-07-20 19:53:00,
2013-07-20 16:03:00,79.5,74.6,29.63,WSW,256,0.0,4.0,85,0.00,CLR,,0.27,WeatherDisplay:10.37,2013-07-20 20:03:00,
2013-07-20 16:23:00,82.9,74.9,29.63,West,267,1.0,10.0,77,0.01,RA,,0.28,WeatherDisplay:10.37,2013-07-20 20:23:00,
2013-07-20 16:33:00,83.3,73.7,29.63,West,274,1.0,5.0,73,0.00,CLR,,0.28,WeatherDisplay:10.37,2013-07-20 20:33:00,
2013-07-20 16:43:00,83.3,74.1,29.63,West,270,0.0,1.0,74,0.00,CLR,,0.28,WeatherDisplay:10.37,2013-07-20 20:43:00,
2013-07-20 17:03:00,81.6,72.5,29.65,West,259,0.0,5.0,74,0.00,CLR,,0.28,WeatherDisplay:10.37,2013-07-20 21:03:00,
2013-07-20 17:23:00,81.2,72.1,29.66,West,271,0.0,2.0,74,0.00,CLR,,0.28,WeatherDisplay:10.37,2013-07-20 21:23:00,
2013-07-20 17:33:00,82.2,72.3,29.66,West,277,0.0,1.0,72,0.00,CLR,,0.28,WeatherDisplay:10.37,2013-07-20 21:33:00,
2013-07-20 17:43:00,83.1,71.9,29.66,West,271,0.0,2.0,69,0.00,CLR,,0.28,WeatherDisplay:10.37,2013-07-20 21:43:00,
2013-07-20 17:53:00,83.1,72.3,29.66,WNW,303,0.0,4.0,70,0.00,CLR,,0.28,WeatherDisplay:10.37,2013-07-20 21:53:00,
2013-07-20 18:03:00,82.6,72.2,29.66,West,276,0.0,1.0,71,0.00,CLR,,0.28,WeatherDisplay:10.37,2013-07-20 22:03:00,
2013-07-20 18:13:00,82.4,72.5,29.66,WSW,245,0.0,0.0,72,0.00,CLR,,0.28,WeatherDisplay:10.37,2013-07-20 22:13:00,
2013-07-20 18:23:00,82.6,72.7,29.66,WSW,246,0.0,2.0,72,0.00,CLR,,0.28,WeatherDisplay:10.37,2013-07-20 22:23:00,
2013-07-20 18:33:00,82.4,72.9,29.66,WNW,283,0.0,1.0,73,0.00,CLR,,0.28,WeatherDisplay:10.37,2013-07-20 22:33:00,
2013-07-20 18:43:00,82.0,72.5,29.66,WNW,284,0.0,0.0,73,0.00,CLR,,0.28,WeatherDisplay:10.37,2013-07-20 22:43:00,
2013-07-20 18:53:00,81.8,72.7,29.66,West,278,0.0,0.0,74,0.00,CLR,,0.28,WeatherDisplay:10.37,2013-07-20 22:53:00,
2013-07-20 19:03:00,81.5,72.8,29.67,West,271,0.0,0.0,75,0.00,CLR,,0.28,WeatherDisplay:10.37,2013-07-20 23:03:00,
2013-07-20 19:13:00,80.9,72.7,29.67,West,269,0.0,0.0,76,0.00,CLR,,0.28,WeatherDisplay:10.37,2013-07-20 23:13:00,
2013-07-20 19:23:00,80.3,72.4,29.67,West,269,0.0,0.0,77,0.00,CLR,,0.28,WeatherDisplay:10.37,2013-07-20 23:23:00,
2013-07-20 19:33:00,80.0,72.1,29.67,West,269,0.0,0.0,77,0.00,CLR,,0.28,WeatherDisplay:10.37,2013-07-20 23:33:00,
2013-07-20 19:43:00,79.9,72.0,29.67,West,267,0.0,0.0,77,0.00,CLR,,0.28,WeatherDisplay:10.37,2013-07-20 23:43:00,
2013-07-20 19:53:00,79.5,72.0,29.68,West,267,0.0,0.0,78,0.00,CLR,,0.28,WeatherDisplay:10.37,2013-07-20 23:53:00,
2013-07-20 20:13:00,78.9,72.2,29.69,West,263,0.0,2.0,80,0.00,FEW,,0.28,WeatherDisplay:10.37,2013-07-21 00:13:00,
2013-07-20 20:23:00,78.9,71.5,29.70,West,280,0.0,6.0,78,0.00,FEW,,0.28,WeatherDisplay:10.37,2013-07-21 00:23:00,
2013-07-20 20:43:00,78.9,68.7,29.71,NW,305,5.0,12.0,71,0.00,FEW,,0.28,WeatherDisplay:10.37,2013-07-21 00:43:00,
2013-07-20 20:53:00,78.6,68.0,29.72,WNW,286,0.0,12.0,70,0.00,FEW,,0.28,WeatherDisplay:10.37,2013-07-21 00:53:00,
2013-07-20 21:03:00,78.2,68.4,29.72,WNW,298,0.0,5.0,72,0.00,FEW,,0.28,WeatherDisplay:10.37,2013-07-21 01:03:00,
2013-07-20 21:13:00,77.7,68.3,29.72,WNW,297,0.0,3.0,73,0.00,BKN,,0.28,WeatherDisplay:10.37,2013-07-21 01:13:00,
2013-07-20 21:33:00,76.2,68.1,29.73,West,280,0.0,0.0,76,0.00,BKN,,0.28,WeatherDisplay:10.37,2013-07-21 01:33:00,
2013-07-20 21:43:00,75.5,67.8,29.73,WSW,258,0.0,0.0,77,0.00,BKN,,0.28,WeatherDisplay:10.37,2013-07-21 01:43:00,
2013-07-20 21:53:00,75.1,67.8,29.74,WSW,255,0.0,2.0,78,0.00,BKN,,0.28,WeatherDisplay:10.37,2013-07-21 01:53:00,
2013-07-20 22:33:00,73.7,62.9,29.75,SW,235,0.0,1.0,69,0.00,CLR,,0.28,WeatherDisplay:10.37,2013-07-21 02:33:00,
2013-07-20 22:43:00,73.1,62.8,29.75,SW,231,0.0,0.0,70,0.00,CLR,,0.28,WeatherDisplay:10.37,2013-07-21 02:43:00,
2013-07-20 22:53:00,72.5,63.0,29.75,SW,229,0.0,0.0,72,0.00,CLR,,0.28,WeatherDisplay:10.37,2013-07-21 02:53:00,
2013-07-20 23:13:00,71.5,63.2,29.76,SW,223,0.0,0.0,75,0.00,CLR,,0.28,WeatherDisplay:10.37,2013-07-21 03:13:00,
2013-07-20 23:33:00,70.6,63.0,29.77,SW,234,0.0,0.0,77,0.00,CLR,,0.28,WeatherDisplay:10.37,2013-07-21 03:33:00,
2013-07-20 23:43:00,70.3,63.1,29.77,West,262,0.0,0.0,78,0.00,CLR,,0.28,WeatherDisplay:10.37,2013-07-21 03:43:00,
2013-07-20 23:53:00,70.3,63.5,29.77,NW,316,0.0,0.0,79,0.00,CLR,,0.28,WeatherDisplay:10.37,2013-07-21 03:53:00,